createdAt,value
2017-11-22T00:01:16.819Z,2.87
2017-11-22T00:03:44.280Z,2.40
2017-11-22T00:06:11.703Z,3.27
2017-11-22T00:08:39.952Z,2.10
2017-11-22T00:11:08.889Z,3.63
2017-11-22T00:13:36.316Z,3.70
2017-11-22T00:16:05.242Z,3.27
2017-11-22T00:18:32.675Z,3.33
2017-11-22T00:21:00.111Z,2.80
2017-11-22T00:23:27.544Z,3.17
2017-11-22T00:25:55.014Z,3.00
2017-11-22T00:28:22.452Z,2.20
2017-11-22T00:30:49.943Z,2.80
2017-11-22T00:33:17.384Z,4.07
2017-11-22T00:35:44.859Z,3.20
2017-11-22T00:38:12.296Z,2.10
2017-11-22T00:40:39.721Z,2.70
2017-11-22T00:43:07.144Z,2.70
2017-11-22T00:45:34.585Z,2.67
2017-11-22T00:48:02.051Z,2.73
2017-11-22T00:50:29.468Z,2.27
2017-11-22T00:52:56.887Z,2.47
2017-11-22T00:55:24.324Z,3.03
2017-11-22T00:57:51.806Z,1.83
2017-11-22T01:00:19.275Z,3.23
2017-11-22T01:02:46.695Z,1.90
2017-11-22T01:05:14.186Z,2.27
2017-11-22T01:07:41.652Z,3.00
2017-11-22T01:10:09.084Z,2.60
2017-11-22T01:12:36.508Z,2.13
2017-11-22T01:15:03.952Z,2.20
2017-11-22T01:17:31.375Z,2.10
2017-11-22T01:19:59.271Z,2.77
2017-11-22T01:22:26.693Z,3.97
2017-11-22T01:24:54.892Z,4.40
2017-11-22T01:27:22.315Z,3.30
2017-11-22T01:29:50.524Z,1.90
2017-11-22T01:32:17.948Z,4.70
2017-11-22T01:34:46.168Z,3.70
2017-11-22T01:37:13.585Z,2.80
2017-11-22T01:39:41.067Z,2.40
2017-11-22T01:42:09.286Z,2.30
2017-11-22T01:44:36.738Z,1.27
2017-11-22T01:47:04.167Z,2.13
2017-11-22T01:49:32.368Z,2.80
2017-11-22T01:51:59.913Z,2.90
2017-11-22T01:54:28.107Z,2.10
2017-11-22T01:56:55.591Z,2.60
2017-11-22T01:59:24.023Z,2.33
2017-11-22T02:01:52.235Z,2.03
2017-11-22T02:04:19.710Z,2.60
2017-11-22T02:06:47.260Z,2.60
2017-11-22T02:09:14.719Z,1.93
2017-11-22T02:11:42.130Z,2.40
2017-11-22T02:14:09.745Z,1.43
2017-11-22T02:16:37.219Z,2.23
2017-11-22T02:19:04.634Z,2.10
2017-11-22T02:21:32.864Z,1.73
2017-11-22T02:24:00.322Z,1.93
2017-11-22T02:26:27.782Z,3.47
2017-11-22T02:28:55.211Z,2.50
2017-11-22T02:31:22.638Z,1.83
2017-11-22T02:33:50.166Z,3.43
2017-11-22T02:36:17.600Z,1.83
2017-11-22T02:38:45.018Z,1.40
2017-11-22T02:41:12.557Z,2.43
2017-11-22T02:43:39.971Z,1.27
2017-11-22T02:46:08.179Z,2.00
2017-11-22T02:48:35.658Z,2.10
2017-11-22T02:51:03.098Z,2.30
2017-11-22T02:53:30.502Z,2.10
2017-11-22T02:55:58.030Z,1.70
2017-11-22T02:58:25.459Z,2.70
2017-11-22T03:00:53.671Z,1.37
2017-11-22T03:03:21.136Z,2.00
2017-11-22T03:05:48.575Z,2.20
2017-11-22T03:08:16.058Z,2.00
2017-11-22T03:10:43.513Z,2.43
2017-11-22T03:13:10.948Z,3.00
2017-11-22T03:15:39.136Z,2.90
2017-11-22T03:18:06.564Z,1.03
2017-11-22T03:20:34.750Z,2.20
2017-11-22T03:23:03.022Z,2.30
2017-11-22T03:25:31.260Z,2.97
2017-11-22T03:27:58.703Z,1.67
2017-11-22T03:30:26.113Z,2.93
2017-11-22T03:32:54.360Z,1.87
2017-11-22T03:35:21.875Z,2.30
2017-11-22T03:37:50.123Z,2.70
2017-11-22T03:40:17.540Z,2.50
2017-11-22T03:42:45.027Z,2.70
2017-11-22T03:45:12.482Z,1.67
2017-11-22T03:47:39.907Z,2.80
2017-11-22T03:50:12.932Z,1.93
2017-11-22T03:52:58.220Z,1.80
2017-11-22T03:55:25.654Z,1.87
2017-11-22T03:57:59.076Z,2.00
2017-11-22T04:00:30.383Z,2.00
2017-11-22T04:03:03.426Z,2.03
2017-11-22T04:05:32.795Z,2.70
2017-11-22T04:08:00.219Z,1.40
2017-11-22T04:10:28.435Z,2.37
2017-11-22T04:12:55.895Z,2.17
2017-11-22T04:15:23.354Z,2.20
2017-11-22T04:17:54.721Z,2.70
2017-11-22T04:20:27.819Z,2.07
2017-11-22T04:22:55.259Z,1.40
2017-11-22T04:25:22.691Z,1.80
2017-11-22T04:27:50.131Z,2.03
2017-11-22T04:30:18.359Z,2.80
2017-11-22T04:32:45.790Z,1.50
2017-11-22T04:35:13.286Z,1.47
2017-11-22T04:37:40.734Z,2.23
2017-11-22T04:40:08.204Z,1.57
2017-11-22T04:42:35.779Z,2.20
2017-11-22T04:45:03.244Z,2.53
2017-11-22T04:47:31.511Z,1.47
2017-11-22T04:49:58.935Z,2.57
2017-11-22T04:52:27.138Z,2.73
2017-11-22T04:54:54.699Z,2.67
2017-11-22T04:57:22.172Z,1.40
2017-11-22T04:59:49.619Z,1.87
2017-11-22T05:02:17.099Z,2.10
2017-11-22T05:04:44.523Z,1.87
2017-11-22T05:07:12.015Z,2.53
2017-11-22T05:09:39.491Z,2.17
2017-11-22T05:12:06.943Z,1.97
2017-11-22T05:14:34.458Z,2.00
2017-11-22T05:17:02.673Z,2.90
2017-11-22T05:19:30.131Z,2.33
2017-11-22T05:21:57.542Z,2.60
2017-11-22T05:24:24.970Z,3.00
2017-11-22T05:26:52.411Z,1.50
2017-11-22T05:29:19.830Z,2.07
2017-11-22T05:31:48.027Z,2.30
2017-11-22T05:34:15.523Z,2.13
2017-11-22T05:36:42.963Z,2.33
2017-11-22T05:39:10.392Z,2.40
2017-11-22T05:41:38.628Z,1.70
2017-11-22T05:44:06.112Z,2.20
2017-11-22T05:46:33.547Z,1.97
2017-11-22T05:49:01.896Z,2.77
2017-11-22T05:51:30.143Z,2.00
2017-11-22T05:53:58.315Z,2.93
2017-11-22T05:56:25.751Z,2.13
2017-11-22T05:58:53.189Z,1.83
2017-11-22T06:01:20.622Z,2.73
2017-11-22T06:03:48.816Z,2.40
2017-11-22T06:06:16.240Z,2.73
2017-11-22T06:08:43.662Z,2.40
2017-11-22T06:11:11.111Z,2.83
2017-11-22T06:13:38.639Z,2.47
2017-11-22T06:16:06.853Z,3.30
2017-11-22T06:18:34.346Z,4.13
2017-11-22T06:21:02.830Z,2.20
2017-11-22T06:23:30.283Z,2.10
2017-11-22T06:25:58.171Z,1.90
2017-11-22T06:28:25.594Z,2.00
2017-11-22T06:30:53.074Z,2.13
2017-11-22T06:33:20.617Z,2.20
2017-11-22T06:35:48.107Z,3.07
2017-11-22T06:38:15.648Z,3.30
2017-11-22T06:40:43.135Z,3.17
2017-11-22T06:43:10.546Z,2.70
2017-11-22T06:45:37.971Z,2.90
2017-11-22T06:48:05.504Z,3.00
2017-11-22T06:50:32.933Z,4.33
2017-11-22T06:53:00.371Z,2.97
2017-11-22T06:55:27.785Z,3.10
2017-11-22T06:57:55.239Z,2.13
2017-11-22T07:00:22.670Z,2.43
2017-11-22T07:02:53.858Z,2.83
2017-11-22T07:05:21.301Z,4.37
2017-11-22T07:07:48.775Z,3.73
2017-11-22T07:10:16.231Z,3.10
2017-11-22T07:12:43.662Z,3.20
2017-11-22T07:15:11.245Z,3.00
2017-11-22T07:17:41.288Z,3.00
2017-11-22T07:20:08.718Z,2.40
2017-11-22T07:22:36.139Z,3.40
2017-11-22T07:25:04.347Z,3.10
2017-11-22T07:27:32.552Z,4.17
2017-11-22T07:29:59.963Z,2.77
2017-11-22T07:32:27.412Z,3.10
2017-11-22T07:34:54.848Z,3.50
2017-11-22T07:37:28.070Z,3.30
2017-11-22T07:39:55.502Z,3.03
2017-11-22T07:42:22.944Z,3.33
2017-11-22T07:44:50.359Z,3.80
2017-11-22T07:47:18.580Z,2.90
2017-11-22T07:49:46.019Z,3.03
2017-11-22T07:52:14.999Z,3.50
2017-11-22T07:54:43.889Z,3.67
2017-11-22T07:57:11.327Z,3.70
2017-11-22T07:59:38.768Z,3.57
2017-11-22T08:02:06.184Z,2.60
2017-11-22T08:04:34.403Z,3.57
2017-11-22T08:07:01.875Z,3.93
2017-11-22T08:09:29.338Z,4.50
2017-11-22T08:11:56.783Z,3.40
2017-11-22T08:14:24.234Z,4.80
2017-11-22T08:16:51.648Z,3.83
2017-11-22T08:19:19.171Z,3.10
2017-11-22T08:21:46.601Z,3.23
2017-11-22T08:24:14.851Z,5.10
2017-11-22T08:26:43.851Z,3.60
2017-11-22T08:29:11.298Z,3.60
2017-11-22T08:31:38.724Z,3.97
2017-11-22T08:34:06.406Z,3.87
2017-11-22T08:36:33.856Z,3.43
2017-11-22T08:39:01.319Z,3.60
2017-11-22T08:41:28.759Z,4.00
2017-11-22T08:43:56.243Z,3.80
2017-11-22T08:46:23.686Z,3.40
2017-11-22T08:48:51.134Z,3.90
2017-11-22T08:51:19.320Z,4.00
2017-11-22T08:53:46.750Z,3.90
2017-11-22T08:56:20.916Z,3.67
2017-11-22T08:58:48.465Z,3.07
2017-11-22T09:01:15.878Z,3.77
2017-11-22T09:03:45.103Z,3.30
2017-11-22T09:06:18.878Z,4.80
2017-11-22T09:08:46.415Z,3.53
2017-11-22T09:11:13.870Z,2.97
2017-11-22T09:13:41.343Z,4.90
2017-11-22T09:16:08.790Z,4.20
2017-11-22T09:18:39.022Z,3.23
2017-11-22T09:21:09.452Z,4.23
2017-11-22T09:23:36.885Z,4.10
2017-11-22T09:26:04.306Z,4.53
2017-11-22T09:28:31.835Z,3.97
2017-11-22T09:31:05.084Z,3.77
2017-11-22T09:33:33.295Z,4.03
2017-11-22T09:36:00.763Z,3.60
2017-11-22T09:38:28.207Z,3.83
2017-11-22T09:40:55.647Z,4.20
2017-11-22T09:43:23.883Z,4.40
2017-11-22T09:45:51.287Z,4.30
2017-11-22T09:48:19.488Z,4.60
2017-11-22T09:50:46.921Z,4.93
2017-11-22T09:53:15.143Z,4.03
2017-11-22T09:55:42.579Z,4.87
2017-11-22T19:25:30.939Z,1.20
2017-11-22T19:27:58.382Z,1.30
2017-11-22T19:30:25.866Z,1.30
2017-11-22T19:32:53.312Z,1.77
2017-11-22T19:35:20.769Z,1.03
2017-11-22T19:37:48.198Z,1.53
2017-11-22T19:40:16.409Z,1.63
2017-11-22T19:42:43.854Z,1.80
2017-11-22T19:45:11.346Z,1.33
2017-11-22T19:47:38.794Z,1.30
2017-11-22T19:50:06.256Z,1.63
2017-11-22T19:52:33.709Z,1.27
2017-11-22T19:55:01.170Z,1.10
2017-11-22T19:57:28.930Z,1.40
2017-11-22T19:59:56.354Z,2.00
2017-11-22T20:02:23.795Z,1.37
2017-11-22T20:04:51.218Z,1.07
2017-11-22T20:07:41.252Z,1.30
2017-11-22T20:10:09.453Z,1.67
2017-11-22T20:12:36.895Z,1.23
2017-11-22T20:15:05.090Z,2.00
2017-11-22T20:17:35.236Z,1.73
2017-11-22T20:20:02.709Z,1.40
2017-11-22T20:22:30.208Z,2.10
2017-11-22T20:24:57.723Z,0.80
2017-11-22T20:27:25.143Z,1.30
2017-11-22T20:29:53.340Z,1.57
2017-11-22T20:32:21.599Z,1.50
2017-11-22T20:34:49.817Z,1.30
2017-11-22T20:37:17.293Z,1.10
2017-11-22T20:39:44.757Z,1.47
2017-11-22T20:42:12.210Z,1.20
2017-11-22T20:44:39.654Z,0.97
2017-11-22T20:47:07.111Z,0.80
2017-11-22T20:49:34.551Z,0.97
2017-11-22T20:52:02.768Z,1.47
2017-11-22T20:54:30.203Z,0.80
2017-11-22T20:56:57.678Z,1.17
2017-11-22T20:59:25.139Z,1.63
2017-11-22T21:01:52.615Z,1.30
2017-11-22T21:04:20.165Z,1.37
2017-11-22T21:06:47.663Z,1.93
2017-11-22T21:09:15.110Z,0.90
2017-11-22T21:11:42.534Z,1.07
2017-11-22T21:14:09.968Z,1.13
2017-11-22T21:16:38.151Z,0.90
2017-11-22T21:19:06.588Z,1.20
2017-11-22T21:21:34.134Z,1.30
2017-11-22T21:24:01.547Z,0.77
2017-11-22T21:26:28.992Z,1.07
2017-11-22T21:28:56.412Z,1.10
2017-11-22T21:31:23.915Z,1.03
2017-11-22T21:33:51.358Z,1.00
2017-11-22T21:36:18.838Z,1.53
2017-11-22T21:38:46.275Z,1.37
2017-11-22T21:41:13.739Z,1.67
2017-11-22T21:43:41.199Z,1.30
2017-11-22T21:46:08.664Z,1.30
2017-11-22T21:48:36.139Z,1.60
2017-11-22T21:51:03.556Z,0.90
2017-11-22T21:53:30.994Z,1.83
2017-11-22T21:55:59.187Z,1.73
2017-11-22T21:58:27.406Z,1.80
2017-11-22T22:00:54.852Z,1.60
2017-11-22T22:03:22.288Z,0.90
2017-11-22T22:05:50.524Z,1.07
2017-11-22T22:08:18.071Z,1.67
2017-11-22T22:10:45.509Z,1.77
2017-11-22T22:13:12.932Z,0.97
2017-11-22T22:15:40.447Z,1.27
2017-11-22T22:18:07.916Z,2.37
2017-11-22T22:20:35.400Z,1.43
2017-11-22T22:23:02.939Z,1.60
2017-11-22T22:25:30.414Z,1.73
2017-11-22T22:27:58.067Z,2.43
2017-11-22T22:30:25.515Z,2.03
2017-11-22T22:32:52.987Z,2.73
2017-11-22T22:35:20.416Z,2.67
2017-11-22T22:37:47.861Z,2.23
2017-11-22T22:40:16.083Z,2.40
2017-11-22T22:42:43.519Z,2.47
2017-11-22T22:45:10.999Z,1.47
2017-11-22T22:47:38.436Z,2.00
2017-11-22T22:50:05.881Z,2.07
2017-11-22T22:52:34.087Z,1.10
2017-11-22T22:55:01.523Z,1.83
2017-11-22T22:57:29.753Z,1.40
2017-11-22T22:59:57.179Z,1.70
2017-11-22T23:02:24.759Z,1.70
2017-11-22T23:04:52.352Z,1.27
2017-11-22T23:07:19.779Z,1.43
2017-11-22T23:09:47.230Z,1.23
2017-11-22T23:12:14.651Z,1.60
2017-11-22T23:14:42.181Z,1.57
2017-11-22T23:17:09.613Z,1.30
2017-11-22T23:19:37.034Z,1.37
2017-11-22T23:22:04.476Z,1.00
2017-11-22T23:24:31.899Z,1.30
2017-11-22T23:26:59.339Z,2.07
2017-11-22T23:29:27.531Z,0.90
2017-11-22T23:31:55.019Z,1.93
2017-11-22T23:34:22.442Z,0.80
2017-11-22T23:36:50.660Z,1.80
2017-11-22T23:39:18.103Z,0.93
2017-11-22T23:41:45.527Z,1.93
2017-11-22T23:44:13.038Z,1.00
2017-11-22T23:46:40.459Z,0.67
2017-11-22T23:49:08.655Z,0.93
2017-11-22T23:51:36.094Z,1.90
2017-11-22T23:54:03.530Z,0.90
2017-11-22T23:56:30.971Z,1.50
2017-11-22T23:58:58.410Z,0.73
